Wingate, TX (79566)

2:50 PM CDT on August 27, 2015 (GMT -0500)
Winters ISD | | Change Station
CLOSE
Current Station
Personal Weather Station
Location: Winters, TX
Elevation: 1870 ft
Nearby Weather Stations

Elev 1870 ft 31.97 °N, 99.96 °W | Updated 11 minutes ago

Clear
Clear
102.0 °F
Feels Like 103 °F
N
4.2
Wind Variable Wind from NNE

Today
High -- | Low -- °F
--% Chance of Precip.
Yesterday
High -- | Low -- °F
Precip. -- in
7:12 AM 8:11 PM
Waxing Gibbous, 94% visible
Pressure 29.91 in
Visibility 10.0 miles
Clouds Few 20000 ft
Heat Index 103 °F
Dew Point 60 °F
Humidity 25%
Rainfall 0.00 in
Snow Depth Not available.
UV 11 out of 12
Pollen 8.00 out of 12
Air Quality Not available.
Flu Activity Not available.
METAR KDYS 271858Z AUTO 18007KT 150V210 10SM FEW200 35/17 A3006 RMK AO2 SLP129 T03540165 $
Pressure 29.91 in
Visibility 10.0 miles
Clouds Few 20000 ft
Heat Index 103 °F
Dew Point 60 °F
Humidity 25%
Rainfall 0.00 in
Snow Depth Not available.
UV 11 out of 12
Pollen 8.00 out of 12
Air Quality Not available.
Flu Activity Not available.
METAR KDYS 271858Z AUTO 18007KT 150V210 10SM FEW200 35/17 A3006 RMK AO2 SLP129 T03540165 $

10-Day Weather Forecast

×

Almanac

Astronomy

Aug. 27, 2015 Rise Set
Actual Time
Civil Twilight
Nautical Twilight
Astronomical Twilight
Moon
Length of Visible Light
Length of Day
Tomorrow will be .
, % of the Moon is Illuminated

Today's Extremes

State Highs State Lows

Community

WunderPhotos

Upload Photos

1,850,200 photos uploaded!

WunderBlogs® & News

Nearby

Air Quality

  Air Quality AQ Index Pollutant
Not available.

Snow Depth

Station Depth Elevation

Earthquake Activity

City Distance Mag. Time & Date
Minimum magnitude displayed is 2.5.

Coastal Water Temperatures

Place Temperature

Stations

Nearby Weather Stations

Station Location Temp. Windchill Dew Point Humidity Wind Precip. Elev Updated Type